Airfield :
LOGIN :

Register | Disclaimer

   EN    FR    IT 

 










Legend :    VFR   Marginal VFR   IFR   Intensive IFR   Very Intensive IFR
Visi :
Ceiling :
>= 8 km
>= 3000ft
5 to 8 km
1000 to 3000 ft
1500m to 5 km
500 to 1000 ft
800 to 1500m
200 to 500 ft
< 800m
< 200 ft
Symbols :   Thunderstorms  Fog  Heavy snow  Heavy precipitations  Wind > 20 kt
SIGMETs :     Misc.  Thunderstorms  Icing  Turbulence  Mountain Waves  Volcanic Ashes







- Airport Elevation : 274 ft
- IATA code : PUY


LDPL - Pula

CURRENT METAR :
  • 160800Z VRB01KT CAVOK 03/02 Q1020 NOSIG

EXPIRED METARs :
  • 160730Z 11003KT 090V150 9999 MIFG NSC 01/01 Q1020 NOSIG
  • 160700Z 09003KT CAVOK 00/M00 Q1020 NOSIG
  • 160630Z 09003KT CAVOK 01/M00 Q1019 NOSIG
  • 160600Z 10003KT CAVOK 01/01 Q1019 NOSIG
  • 160530Z 09004KT CAVOK 01/M00 Q1019 NOSIG

TAF TAF LDPL
Valid from the 16 at 06:00 until the 17 at 06:00 UTC


160525Z 1606/1706 VRB02KT CAVOK TX11/1613Z TN02/1607Z
TEMPO 1611/1621 24007KT
BECMG 1621/1623 24015KT
No reported NOTAMs for that airfield.



MET'MAP, your aeronautical weather chart ! - Copyright ORBIFLY December 2007 - Disclaimer

ORBIFLY MET'MAP TEAM :

Programming & Development : Alexandra Zaïnal
Concept & Development : Baudouin d'Aumeries
Co-Development & Prog : Marc-Olivier Méhu
Technical & hardware support : Manuel Goepfert

Contact : metmap@orbifly.com




SOURCES & CREDITS :

   NOAA